createdAt,value
2023-02-19T00:01:27.659Z,14.60
2023-02-19T00:03:56.859Z,14.60
2023-02-19T00:06:25.544Z,14.40
2023-02-19T00:08:52.328Z,14.20
2023-02-19T00:11:21.854Z,14.50
2023-02-19T00:13:51.394Z,14.50
2023-02-19T00:16:27.704Z,14.40
2023-02-19T00:18:55.950Z,14.60
2023-02-19T00:21:23.076Z,14.40
2023-02-19T00:23:51.157Z,13.90
2023-02-19T00:26:19.072Z,13.90
2023-02-19T00:28:47.284Z,13.80
2023-02-19T00:31:19.852Z,14.50
2023-02-19T00:33:48.084Z,14.40
2023-02-19T00:36:15.503Z,14.30
2023-02-19T00:38:43.455Z,14.30
2023-02-19T00:41:21.557Z,14.20
2023-02-19T00:43:51.338Z,14.20
2023-02-19T00:46:39.053Z,14.30
2023-02-19T00:49:07.439Z,14.00
2023-02-19T00:51:36.426Z,14.10
2023-02-19T00:54:03.978Z,14.10
2023-02-19T00:56:31.067Z,14.60
2023-02-19T00:58:57.988Z,14.50
2023-02-19T01:01:24.750Z,14.20
2023-02-19T01:03:51.663Z,14.20
2023-02-19T01:06:20.012Z,13.90
2023-02-19T01:08:46.801Z,14.50
2023-02-19T01:11:14.028Z,14.30
2023-02-19T01:13:41.334Z,14.20
2023-02-19T01:16:20.299Z,14.20
2023-02-19T01:18:49.041Z,13.80
2023-02-19T01:21:19.733Z,13.30
2023-02-19T01:23:46.749Z,14.00
2023-02-19T01:26:17.419Z,13.70
2023-02-19T01:28:45.747Z,14.30
2023-02-19T01:31:16.024Z,14.10
2023-02-19T01:33:47.517Z,14.10
2023-02-19T01:36:14.786Z,14.20
2023-02-19T01:38:41.852Z,14.30
2023-02-19T01:41:11.577Z,14.00
2023-02-19T01:44:00.169Z,14.50
2023-02-19T01:46:32.728Z,14.40
2023-02-19T01:49:10.228Z,14.20
2023-02-19T01:51:43.503Z,13.90
2023-02-19T01:54:13.117Z,13.80
2023-02-19T01:56:42.700Z,14.00
2023-02-19T01:59:09.869Z,14.00
2023-02-19T02:01:39.301Z,13.90
2023-02-19T02:04:07.902Z,13.60
2023-02-19T02:06:42.463Z,13.30
2023-02-19T02:09:28.596Z,14.10
2023-02-19T02:11:56.446Z,14.10
2023-02-19T02:14:27.434Z,14.40
2023-02-19T02:17:08.852Z,14.60
2023-02-19T02:19:54.349Z,14.60
2023-02-19T02:22:32.644Z,14.20
2023-02-19T02:25:14.840Z,14.20
2023-02-19T02:28:12.264Z,13.90
2023-02-19T02:31:02.727Z,13.80
2023-02-19T02:33:48.238Z,13.60
2023-02-19T02:36:20.408Z,14.10
2023-02-19T02:38:48.780Z,14.10
2023-02-19T02:41:16.580Z,13.70
2023-02-19T02:43:43.266Z,13.70
2023-02-19T02:46:12.835Z,13.70
2023-02-19T02:48:47.123Z,13.60
2023-02-19T02:51:16.578Z,13.50
2023-02-19T02:54:12.144Z,13.60
2023-02-19T02:56:41.231Z,13.90
2023-02-19T02:59:10.630Z,13.50
2023-02-19T03:02:07.920Z,13.80
2023-02-19T03:05:13.326Z,14.10
2023-02-19T03:07:49.450Z,13.50
2023-02-19T03:10:34.140Z,13.80
2023-02-19T03:13:22.149Z,13.40
2023-02-19T03:16:13.643Z,13.50
2023-02-19T03:19:01.563Z,13.90
2023-02-19T03:21:29.074Z,13.60
2023-02-19T03:24:15.851Z,13.50
2023-02-19T03:26:45.267Z,13.80
2023-02-19T03:29:28.783Z,13.80
2023-02-19T03:32:00.233Z,14.40
2023-02-19T03:34:41.596Z,13.80
2023-02-19T03:37:25.125Z,13.30
2023-02-19T03:39:54.729Z,13.60
2023-02-19T03:42:42.184Z,13.90
2023-02-19T03:45:31.716Z,13.70
2023-02-19T03:48:24.814Z,14.10
2023-02-19T03:51:29.501Z,13.70
2023-02-19T03:54:07.415Z,13.50
2023-02-19T03:57:10.311Z,13.60
2023-02-19T03:59:59.558Z,13.50
2023-02-19T04:02:49.036Z,13.30
2023-02-19T04:05:22.686Z,13.30
2023-02-19T04:07:53.171Z,13.60
2023-02-19T04:10:20.540Z,13.30
2023-02-19T04:13:00.443Z,13.40
2023-02-19T04:15:31.712Z,13.50
2023-02-19T04:18:06.431Z,12.80
2023-02-19T04:20:41.023Z,13.10
2023-02-19T04:23:08.105Z,13.30
2023-02-19T04:25:37.409Z,13.20
2023-02-19T04:28:04.531Z,12.90
2023-02-19T04:30:31.392Z,13.30
2023-02-19T04:32:58.103Z,13.80
2023-02-19T04:35:24.837Z,13.00
2023-02-19T04:37:51.567Z,13.50
2023-02-19T04:40:18.372Z,13.30
2023-02-19T04:42:45.012Z,13.10
2023-02-19T04:45:11.642Z,13.20
2023-02-19T04:47:38.312Z,13.30
2023-02-19T04:50:05.323Z,13.70
2023-02-19T04:52:33.322Z,13.30
2023-02-19T04:55:00.083Z,13.40
2023-02-19T04:57:26.723Z,13.50
2023-02-19T04:59:53.494Z,13.20
2023-02-19T05:02:20.160Z,13.30
2023-02-19T05:04:46.815Z,13.00
2023-02-19T05:07:13.670Z,13.00
2023-02-19T05:09:40.306Z,13.70
2023-02-19T05:12:07.100Z,13.50
2023-02-19T05:14:33.775Z,13.60
2023-02-19T05:17:00.397Z,13.60
2023-02-19T05:19:27.272Z,13.10
2023-02-19T05:21:53.906Z,13.00
2023-02-19T05:24:20.669Z,12.90
2023-02-19T05:26:48.242Z,13.30
2023-02-19T05:29:14.970Z,13.30
2023-02-19T05:31:41.944Z,13.30
2023-02-19T05:34:08.605Z,13.20
2023-02-19T05:36:37.138Z,13.40
2023-02-19T05:39:06.144Z,13.40
2023-02-19T05:41:33.247Z,12.80
2023-02-19T05:43:59.950Z,12.50
2023-02-19T05:46:29.563Z,13.20
2023-02-19T05:48:58.286Z,13.10
2023-02-19T05:51:26.919Z,13.40
2023-02-19T05:53:54.260Z,13.60
2023-02-19T05:56:33.586Z,13.20
2023-02-19T05:59:04.581Z,13.60
2023-02-19T06:01:32.445Z,13.80
2023-02-19T06:03:59.169Z,13.90
2023-02-19T06:06:27.293Z,13.70
2023-02-19T06:08:54.303Z,14.10
2023-02-19T06:11:21.571Z,14.20
2023-02-19T06:13:52.107Z,13.40
2023-02-19T06:16:19.358Z,13.30
2023-02-19T06:18:46.543Z,13.40
2023-02-19T06:21:14.211Z,14.10
2023-02-19T06:23:41.250Z,13.70
2023-02-19T06:26:17.697Z,14.00
2023-02-19T06:28:45.460Z,14.00
2023-02-19T06:31:14.158Z,14.10
2023-02-19T06:33:41.904Z,14.30
2023-02-19T06:36:13.507Z,14.10
2023-02-19T06:38:40.581Z,13.50
2023-02-19T06:41:09.877Z,13.90
2023-02-19T06:43:36.697Z,13.00
2023-02-19T06:46:05.184Z,12.70
2023-02-19T06:48:32.994Z,12.80
2023-02-19T06:50:59.873Z,12.60
2023-02-19T06:53:27.491Z,13.20
2023-02-19T06:55:58.500Z,12.90
2023-02-19T06:58:25.476Z,12.70
2023-02-19T07:00:53.909Z,12.40
2023-02-19T07:03:21.007Z,12.60
2023-02-19T07:05:47.998Z,12.90
2023-02-19T07:08:17.148Z,12.50
2023-02-19T07:10:44.967Z,12.50
2023-02-19T07:13:11.941Z,12.70
2023-02-19T07:15:38.724Z,13.00
2023-02-19T07:18:07.616Z,12.80
2023-02-19T07:20:34.263Z,12.90
2023-02-19T07:23:01.027Z,13.20
2023-02-19T07:25:27.696Z,12.70
2023-02-19T07:27:54.421Z,12.50
2023-02-19T07:30:21.168Z,12.40
2023-02-19T07:32:48.002Z,12.50
2023-02-19T07:35:14.746Z,12.50
2023-02-19T07:37:41.890Z,12.40
2023-02-19T07:40:08.862Z,12.40
2023-02-19T07:42:35.535Z,12.30
2023-02-19T07:45:02.219Z,12.70
2023-02-19T07:47:29.728Z,12.60
2023-02-19T07:49:56.441Z,12.50
2023-02-19T07:52:23.325Z,12.90
2023-02-19T07:54:49.984Z,12.80
2023-02-19T07:57:16.788Z,12.10
2023-02-19T07:59:43.682Z,12.10
2023-02-19T08:02:37.144Z,11.60
2023-02-19T08:05:05.414Z,12.00
2023-02-19T08:07:35.806Z,12.10
2023-02-19T08:10:22.462Z,11.40
2023-02-19T08:13:35.996Z,11.90
2023-02-19T08:16:16.030Z,11.50
2023-02-19T08:18:47.559Z,11.20
2023-02-19T08:21:14.660Z,11.30
2023-02-19T08:23:42.433Z,11.50
2023-02-19T08:26:09.868Z,11.20
2023-02-19T08:28:36.729Z,13.00
2023-02-19T08:31:07.069Z,12.00
2023-02-19T08:33:35.197Z,12.10
2023-02-19T08:36:05.025Z,12.00
2023-02-19T08:38:34.731Z,12.50
2023-02-19T08:41:10.176Z,12.30
2023-02-19T08:43:37.032Z,12.30
2023-02-19T08:46:04.767Z,12.90
2023-02-19T08:48:31.528Z,12.20
2023-02-19T08:51:03.533Z,11.70
2023-02-19T08:53:32.212Z,11.60
2023-02-19T08:55:59.299Z,12.90
2023-02-19T08:58:26.334Z,12.50
2023-02-19T09:00:53.409Z,13.40
2023-02-19T09:03:20.066Z,13.30
2023-02-19T09:05:47.046Z,14.10
2023-02-19T09:08:13.712Z,12.80
2023-02-19T09:10:40.392Z,12.80
2023-02-19T09:13:07.119Z,12.50
2023-02-19T09:15:34.730Z,11.90
2023-02-19T09:18:01.450Z,12.70
2023-02-19T09:20:28.109Z,12.40
2023-02-19T09:22:59.120Z,12.30
2023-02-19T09:25:26.086Z,11.90
2023-02-19T09:27:56.790Z,12.10
2023-02-19T09:30:23.962Z,11.60
2023-02-19T09:32:50.856Z,11.70
2023-02-19T09:35:17.680Z,11.70
2023-02-19T09:37:44.572Z,12.80
2023-02-19T09:40:12.067Z,13.30
2023-02-19T09:42:41.481Z,13.00
2023-02-19T09:45:12.412Z,12.50
2023-02-19T09:47:39.116Z,12.70
2023-02-19T09:50:08.840Z,12.40
2023-02-19T09:52:42.790Z,12.20
2023-02-19T09:55:17.733Z,11.60
2023-02-19T09:57:45.765Z,11.40
2023-02-19T10:00:12.834Z,11.00
2023-02-19T10:02:39.534Z,11.50
2023-02-19T10:05:16.280Z,11.10
2023-02-19T10:07:49.048Z,11.60
2023-02-19T10:10:15.720Z,11.40
2023-02-19T10:12:53.972Z,11.40
2023-02-19T10:15:32.044Z,10.60
2023-02-19T10:17:58.925Z,10.40
2023-02-19T10:20:27.910Z,10.30
2023-02-19T10:23:02.900Z,10.00
2023-02-19T10:25:31.068Z,9.70
2023-02-19T10:28:02.139Z,9.50
2023-02-19T10:30:35.516Z,9.20
2023-02-19T10:33:12.419Z,9.30
2023-02-19T10:35:57.286Z,9.10
2023-02-19T10:38:40.199Z,9.30
2023-02-19T10:41:14.580Z,9.30
2023-02-19T10:43:50.467Z,9.20
2023-02-19T10:46:21.856Z,9.00
2023-02-19T10:49:01.390Z,9.20
2023-02-19T10:51:40.772Z,9.20
2023-02-19T10:54:25.373Z,9.40
2023-02-19T10:56:52.324Z,10.50
2023-02-19T10:59:18.946Z,9.70
2023-02-19T11:02:03.488Z,9.30
2023-02-19T11:04:35.614Z,9.40
2023-02-19T11:07:19.495Z,9.30
2023-02-19T11:10:19.013Z,9.20
2023-02-19T11:12:49.336Z,8.80
2023-02-19T11:15:29.703Z,8.90
2023-02-19T11:18:18.123Z,9.10
2023-02-19T11:20:57.097Z,9.00
2023-02-19T11:23:36.119Z,8.90
2023-02-19T11:26:15.853Z,9.20
2023-02-19T11:28:44.116Z,9.00
2023-02-19T11:31:20.201Z,8.70
2023-02-19T11:34:15.012Z,8.90
2023-02-19T11:36:42.654Z,9.00
2023-02-19T11:39:20.434Z,9.00
2023-02-19T11:42:17.368Z,9.40
2023-02-19T11:44:56.418Z,9.30
2023-02-19T11:47:29.204Z,9.00
2023-02-19T11:50:21.196Z,9.10
2023-02-19T11:53:02.283Z,10.20
2023-02-19T11:55:53.665Z,10.30
2023-02-19T11:58:55.485Z,10.50
2023-02-19T12:01:46.467Z,10.10
2023-02-19T12:04:37.948Z,10.30
2023-02-19T12:07:27.415Z,10.10
2023-02-19T12:10:13.050Z,9.40
2023-02-19T12:12:59.056Z,9.20
2023-02-19T12:15:44.220Z,9.60
2023-02-19T12:18:26.708Z,9.40
2023-02-19T12:21:22.565Z,9.50
2023-02-19T12:24:01.465Z,9.10
2023-02-19T12:26:35.514Z,9.20
2023-02-19T12:29:23.501Z,9.20
2023-02-19T12:32:01.527Z,9.10
2023-02-19T12:34:40.175Z,9.10
2023-02-19T12:37:24.493Z,9.10
2023-02-19T12:40:08.729Z,9.70
2023-02-19T12:42:45.912Z,9.10
2023-02-19T12:45:47.336Z,8.90
2023-02-19T12:48:36.022Z,9.20
2023-02-19T12:51:11.013Z,9.10
2023-02-19T12:54:06.198Z,9.50
2023-02-19T12:56:32.897Z,9.50
2023-02-19T12:59:05.626Z,9.70
2023-02-19T13:01:43.435Z,9.50
2023-02-19T13:04:39.747Z,9.20
2023-02-19T13:07:16.589Z,8.70
2023-02-19T13:09:55.753Z,8.70
2023-02-19T13:12:22.482Z,9.20
2023-02-19T13:14:56.714Z,9.00
2023-02-19T13:17:34.396Z,9.30
2023-02-19T13:20:18.493Z,9.20
2023-02-19T13:23:14.111Z,9.90
2023-02-19T13:26:15.968Z,9.40
2023-02-19T13:28:51.327Z,9.20
2023-02-19T13:31:37.440Z,9.50
2023-02-19T13:34:28.503Z,9.50
2023-02-19T13:36:56.120Z,9.30
2023-02-19T13:39:24.022Z,9.30
2023-02-19T13:41:56.366Z,9.80
2023-02-19T13:44:29.281Z,9.80
2023-02-19T13:46:56.490Z,10.00
2023-02-19T13:49:33.944Z,10.00
2023-02-19T13:52:20.538Z,10.90
2023-02-19T13:54:47.242Z,10.40
2023-02-19T13:57:22.706Z,10.10
2023-02-19T13:59:57.113Z,10.40
2023-02-19T14:02:29.089Z,11.10
2023-02-19T14:05:01.426Z,10.20
2023-02-19T14:07:28.006Z,11.40
2023-02-19T14:09:55.260Z,10.90
2023-02-19T14:12:30.556Z,10.50
2023-02-19T14:14:57.656Z,10.70
2023-02-19T14:17:38.250Z,10.60
2023-02-19T14:20:17.068Z,11.20
2023-02-19T14:22:47.176Z,11.70
2023-02-19T14:25:31.743Z,11.60
2023-02-19T14:28:10.449Z,11.30
2023-02-19T14:30:51.040Z,11.10
2023-02-19T14:33:20.020Z,11.10
2023-02-19T14:35:49.275Z,11.20
2023-02-19T14:38:23.456Z,11.70
2023-02-19T14:40:53.052Z,10.90
2023-02-19T14:43:23.310Z,11.40
2023-02-19T14:46:09.001Z,11.10
2023-02-19T14:48:45.708Z,11.70
2023-02-19T14:51:25.118Z,12.20
2023-02-19T14:53:53.089Z,11.60
2023-02-19T14:56:34.725Z,10.90
2023-02-19T14:59:09.481Z,11.30
2023-02-19T15:01:36.357Z,11.70
2023-02-19T15:04:03.943Z,11.30
2023-02-19T15:06:32.132Z,11.50
2023-02-19T15:09:02.553Z,11.70
2023-02-19T15:11:31.947Z,11.80
2023-02-19T15:14:02.286Z,11.80
2023-02-19T15:16:31.216Z,11.50
2023-02-19T15:18:59.934Z,12.00
2023-02-19T15:21:32.542Z,12.20
2023-02-19T15:24:05.472Z,11.90
2023-02-19T15:26:40.684Z,12.30
2023-02-19T15:29:12.672Z,11.80
2023-02-19T15:31:53.783Z,12.00
2023-02-19T15:34:23.424Z,12.10
2023-02-19T15:37:04.534Z,12.40
2023-02-19T15:39:36.622Z,12.20
2023-02-19T15:42:05.394Z,12.10
2023-02-19T15:44:37.890Z,12.20
2023-02-19T15:47:33.347Z,12.40
2023-02-19T15:50:08.621Z,12.60
2023-02-19T15:52:50.196Z,12.50
2023-02-19T15:55:26.271Z,9.50
2023-02-19T15:58:14.181Z,8.90
2023-02-19T16:00:49.802Z,8.50
2023-02-19T16:03:27.244Z,8.50
2023-02-19T16:06:01.199Z,8.50
2023-02-19T16:08:38.997Z,8.30
2023-02-19T16:11:26.259Z,10.00
2023-02-19T16:14:13.545Z,10.80
2023-02-19T16:16:42.876Z,11.30
2023-02-19T16:19:12.352Z,11.80
2023-02-19T16:21:39.313Z,11.90
2023-02-19T16:24:15.517Z,11.80
2023-02-19T16:26:44.571Z,11.90
2023-02-19T16:29:32.287Z,11.90
2023-02-19T16:32:05.431Z,12.20
2023-02-19T16:34:47.958Z,12.00
2023-02-19T16:37:33.341Z,12.60
2023-02-19T16:40:09.252Z,12.20
2023-02-19T16:42:38.220Z,12.50
2023-02-19T16:45:08.207Z,12.80
2023-02-19T16:47:38.377Z,12.70
2023-02-19T16:50:14.183Z,13.10
2023-02-19T16:52:59.497Z,12.90
2023-02-19T16:55:27.139Z,13.00
2023-02-19T16:57:54.358Z,12.20
2023-02-19T17:00:23.957Z,12.00
2023-02-19T17:02:53.198Z,12.30
2023-02-19T17:05:21.598Z,12.00
2023-02-19T17:07:48.876Z,12.50
2023-02-19T17:10:20.459Z,12.80
2023-02-19T17:12:47.184Z,12.90
2023-02-19T17:15:13.917Z,12.90
2023-02-19T17:17:41.002Z,13.00
2023-02-19T17:20:22.405Z,12.80
2023-02-19T17:22:49.286Z,12.50
2023-02-19T17:25:16.127Z,12.30
2023-02-19T17:27:42.831Z,12.50
2023-02-19T17:30:18.691Z,12.60
2023-02-19T17:32:45.465Z,12.50
2023-02-19T17:35:13.533Z,12.70
2023-02-19T17:37:40.426Z,12.60
2023-02-19T17:40:33.113Z,12.40
2023-02-19T17:43:00.035Z,12.50
2023-02-19T17:45:28.018Z,12.20
2023-02-19T17:47:54.681Z,12.50
2023-02-19T17:50:24.004Z,12.60
2023-02-19T17:52:50.796Z,12.30
2023-02-19T17:55:19.057Z,11.80
2023-02-19T17:57:46.790Z,11.10
2023-02-19T18:00:18.754Z,11.10
2023-02-19T18:02:45.666Z,11.10
2023-02-19T18:05:12.831Z,10.70
2023-02-19T18:07:39.661Z,10.20
2023-02-19T18:10:07.587Z,10.40
2023-02-19T18:12:34.270Z,10.50
2023-02-19T18:15:01.013Z,10.60
2023-02-19T18:17:27.750Z,10.30
2023-02-19T18:19:54.870Z,10.80
2023-02-19T18:22:21.632Z,10.90
2023-02-19T18:24:53.380Z,10.30
2023-02-19T18:27:20.593Z,10.30
2023-02-19T18:29:55.479Z,10.30
2023-02-19T18:32:25.393Z,10.10
2023-02-19T18:34:54.475Z,10.40
2023-02-19T18:37:22.607Z,10.20
2023-02-19T18:39:50.634Z,9.90
2023-02-19T18:42:17.572Z,10.40
2023-02-19T18:44:47.930Z,10.70
2023-02-19T18:47:15.380Z,10.70
2023-02-19T18:49:49.372Z,11.30
2023-02-19T18:52:20.782Z,11.40
2023-02-19T18:54:52.354Z,11.30
2023-02-19T18:57:20.652Z,11.40
2023-02-19T18:59:48.332Z,11.40
2023-02-19T19:02:15.660Z,11.40
2023-02-19T19:04:43.159Z,11.20
2023-02-19T19:07:10.734Z,11.80
2023-02-19T19:09:37.610Z,11.90
2023-02-19T19:12:04.743Z,11.50
2023-02-19T19:14:31.826Z,11.90
2023-02-19T19:16:58.583Z,12.50
2023-02-19T19:19:25.365Z,12.20
2023-02-19T19:21:53.572Z,12.00
2023-02-19T19:24:21.436Z,11.90
2023-02-19T19:26:49.420Z,12.00
2023-02-19T19:29:17.622Z,12.80
2023-02-19T19:31:45.322Z,12.30
2023-02-19T19:34:12.778Z,11.70
2023-02-19T19:36:39.472Z,11.70
2023-02-19T19:39:06.943Z,11.80
2023-02-19T19:41:34.748Z,11.70
2023-02-19T19:44:08.617Z,11.50
2023-02-19T19:46:35.552Z,11.90
2023-02-19T19:49:02.403Z,11.90
2023-02-19T19:51:34.387Z,12.30
2023-02-19T19:54:04.098Z,12.40
2023-02-19T19:56:31.358Z,12.20
2023-02-19T19:58:58.056Z,12.00
2023-02-19T20:01:24.757Z,11.80
2023-02-19T20:03:54.374Z,11.70
2023-02-19T20:06:29.548Z,11.20
2023-02-19T20:08:56.665Z,11.60
2023-02-19T20:11:23.643Z,11.60
2023-02-19T20:13:50.398Z,11.70
2023-02-19T20:16:22.792Z,11.80
2023-02-19T20:18:49.485Z,11.90
2023-02-19T20:21:16.250Z,11.80
2023-02-19T20:23:42.970Z,11.60
2023-02-19T20:26:09.722Z,11.80
2023-02-19T20:28:36.487Z,12.00
2023-02-19T20:31:03.465Z,11.40
2023-02-19T20:33:30.165Z,11.60
2023-02-19T20:35:57.007Z,11.50
2023-02-19T20:38:23.740Z,11.60
2023-02-19T20:40:50.492Z,12.40
2023-02-19T20:43:17.182Z,11.80
2023-02-19T20:45:45.909Z,11.70
2023-02-19T20:48:15.859Z,11.90
2023-02-19T20:50:42.673Z,11.70
2023-02-19T20:53:10.208Z,11.40
2023-02-19T20:55:37.095Z,11.60
2023-02-19T20:58:04.144Z,11.70
2023-02-19T21:00:30.862Z,11.50
2023-02-19T21:02:57.644Z,11.80
2023-02-19T21:05:24.362Z,11.90
2023-02-19T21:07:51.083Z,11.40
2023-02-19T21:10:18.888Z,11.40
2023-02-19T21:12:45.585Z,11.70
2023-02-19T21:15:12.371Z,12.00
2023-02-19T21:17:39.086Z,10.40
2023-02-19T21:20:07.545Z,9.10
2023-02-19T21:22:34.280Z,8.60
2023-02-19T21:25:00.996Z,7.80
2023-02-19T21:27:28.157Z,7.30
2023-02-19T21:29:54.823Z,7.40
2023-02-19T21:32:21.774Z,7.50
2023-02-19T21:34:48.948Z,7.70
2023-02-19T21:37:15.749Z,8.10
2023-02-19T21:39:42.828Z,9.90
2023-02-19T21:42:09.622Z,10.00
2023-02-19T21:44:36.581Z,10.20
2023-02-19T21:47:03.486Z,9.30
2023-02-19T21:49:30.216Z,8.60
2023-02-19T21:51:56.920Z,10.40
2023-02-19T21:54:25.373Z,9.80
2023-02-19T21:56:53.495Z,9.20
2023-02-19T21:59:21.281Z,10.00
2023-02-19T22:01:48.087Z,10.20
2023-02-19T22:04:16.842Z,10.80
2023-02-19T22:06:43.997Z,11.00
2023-02-19T22:09:13.052Z,10.00
2023-02-19T22:11:40.232Z,9.70
2023-02-19T22:14:07.125Z,8.30
2023-02-19T22:16:33.879Z,8.40
2023-02-19T22:19:00.617Z,7.60
2023-02-19T22:21:32.350Z,7.30
2023-02-19T22:24:00.069Z,9.20
2023-02-19T22:26:33.227Z,8.20
2023-02-19T22:29:02.753Z,7.90
2023-02-19T22:31:31.972Z,7.40
2023-02-19T22:34:00.298Z,7.10
2023-02-19T22:36:30.933Z,7.20
2023-02-19T22:38:57.892Z,7.30
2023-02-19T22:41:24.689Z,7.20
2023-02-19T22:43:54.632Z,7.10
2023-02-19T22:46:23.915Z,7.40
2023-02-19T22:48:50.798Z,8.10
2023-02-19T22:51:21.282Z,7.80
2023-02-19T22:53:49.435Z,7.20
2023-02-19T22:56:17.663Z,7.00
2023-02-19T22:58:44.791Z,6.80
2023-02-19T23:01:13.490Z,6.70
2023-02-19T23:04:00.216Z,7.10
2023-02-19T23:06:32.381Z,7.00
2023-02-19T23:09:09.813Z,6.90
2023-02-19T23:11:39.140Z,7.50
2023-02-19T23:14:06.816Z,7.80
2023-02-19T23:16:35.934Z,7.60
2023-02-19T23:19:04.900Z,8.30
2023-02-19T23:21:32.102Z,8.30
2023-02-19T23:23:59.569Z,9.70
2023-02-19T23:26:26.511Z,9.50
2023-02-19T23:28:53.240Z,9.40
2023-02-19T23:31:20.136Z,9.40
2023-02-19T23:33:47.023Z,9.40
2023-02-19T23:36:14.883Z,8.50
2023-02-19T23:38:44.831Z,8.00
2023-02-19T23:41:13.161Z,8.20
2023-02-19T23:43:40.021Z,7.90
2023-02-19T23:46:07.420Z,7.60
2023-02-19T23:48:34.785Z,7.60
2023-02-19T23:51:01.674Z,7.50
2023-02-19T23:53:28.435Z,7.30
2023-02-19T23:55:55.310Z,7.40
2023-02-19T23:58:22.003Z,9.30
